sensor_id;sensor_type;location;lat;lon;timestamp;temperature;humidity
12773;DHT22;6450;48.576;13.460;2022-08-03T00:03:34;20.80;99.90
12773;DHT22;6450;48.576;13.460;2022-08-03T00:06:01;20.70;99.90
12773;DHT22;6450;48.576;13.460;2022-08-03T00:08:28;20.70;99.90
12773;DHT22;6450;48.576;13.460;2022-08-03T00:10:55;20.50;99.90
12773;DHT22;6450;48.576;13.460;2022-08-03T00:13:22;20.50;99.90
12773;DHT22;6450;48.576;13.460;2022-08-03T00:15:49;20.70;99.90
12773;DHT22;6450;48.576;13.460;2022-08-03T00:18:16;20.60;99.90
12773;DHT22;6450;48.576;13.460;2022-08-03T00:23:12;20.50;99.90
12773;DHT22;6450;48.576;13.460;2022-08-03T00:25:39;20.40;99.90
12773;DHT22;6450;48.576;13.460;2022-08-03T00:28:06;20.40;99.90
12773;DHT22;6450;48.576;13.460;2022-08-03T00:30:34;20.50;99.90
12773;DHT22;6450;48.576;13.460;2022-08-03T00:33:01;20.60;99.90
12773;DHT22;6450;48.576;13.460;2022-08-03T00:35:29;20.40;99.90
12773;DHT22;6450;48.576;13.460;2022-08-03T00:37:57;20.40;99.90
12773;DHT22;6450;48.576;13.460;2022-08-03T00:40:25;20.40;99.90
12773;DHT22;6450;48.576;13.460;2022-08-03T00:42:53;20.10;99.90
12773;DHT22;6450;48.576;13.460;2022-08-03T00:45:22;20.30;99.90
12773;DHT22;6450;48.576;13.460;2022-08-03T00:47:49;20.00;99.90
12773;DHT22;6450;48.576;13.460;2022-08-03T00:50:17;19.90;99.90
12773;DHT22;6450;48.576;13.460;2022-08-03T00:52:45;20.00;99.90
12773;DHT22;6450;48.576;13.460;2022-08-03T00:55:15;20.00;99.90
12773;DHT22;6450;48.576;13.460;2022-08-03T00:57:42;20.00;99.90
12773;DHT22;6450;48.576;13.460;2022-08-03T01:00:11;20.00;99.90
12773;DHT22;6450;48.576;13.460;2022-08-03T01:02:40;20.00;99.90
12773;DHT22;6450;48.576;13.460;2022-08-03T01:05:07;20.00;99.90
12773;DHT22;6450;48.576;13.460;2022-08-03T01:07:41;20.00;99.90
12773;DHT22;6450;48.576;13.460;2022-08-03T01:10:18;20.00;99.90
12773;DHT22;6450;48.576;13.460;2022-08-03T01:12:55;19.90;99.90
12773;DHT22;6450;48.576;13.460;2022-08-03T01:15:28;19.90;99.90
12773;DHT22;6450;48.576;13.460;2022-08-03T01:18:01;19.80;99.90
12773;DHT22;6450;48.576;13.460;2022-08-03T01:20:32;19.90;99.90
12773;DHT22;6450;48.576;13.460;2022-08-03T01:23:15;19.90;99.90
12773;DHT22;6450;48.576;13.460;2022-08-03T01:25:58;19.70;99.90
12773;DHT22;6450;48.576;13.460;2022-08-03T01:28:43;19.80;99.90
12773;DHT22;6450;48.576;13.460;2022-08-03T01:31:19;19.80;99.90
12773;DHT22;6450;48.576;13.460;2022-08-03T01:33:51;19.70;99.90
12773;DHT22;6450;48.576;13.460;2022-08-03T01:36:23;19.70;99.90
12773;DHT22;6450;48.576;13.460;2022-08-03T01:38:53;19.60;99.90
12773;DHT22;6450;48.576;13.460;2022-08-03T01:41:24;19.50;99.90
12773;DHT22;6450;48.576;13.460;2022-08-03T01:43:53;19.60;99.90
12773;DHT22;6450;48.576;13.460;2022-08-03T01:46:22;19.50;99.90
12773;DHT22;6450;48.576;13.460;2022-08-03T01:48:52;19.50;99.90
12773;DHT22;6450;48.576;13.460;2022-08-03T01:51:20;19.60;99.90
12773;DHT22;6450;48.576;13.460;2022-08-03T01:53:48;19.40;99.90
12773;DHT22;6450;48.576;13.460;2022-08-03T01:56:17;19.50;99.90
12773;DHT22;6450;48.576;13.460;2022-08-03T01:58:45;19.40;99.90
12773;DHT22;6450;48.576;13.460;2022-08-03T02:01:14;19.40;99.90
12773;DHT22;6450;48.576;13.460;2022-08-03T02:03:44;19.40;99.90
12773;DHT22;6450;48.576;13.460;2022-08-03T02:06:12;19.40;99.90
12773;DHT22;6450;48.576;13.460;2022-08-03T02:08:41;19.40;99.90
12773;DHT22;6450;48.576;13.460;2022-08-03T02:11:08;19.30;99.90
12773;DHT22;6450;48.576;13.460;2022-08-03T02:13:36;19.30;99.90
12773;DHT22;6450;48.576;13.460;2022-08-03T02:16:04;19.20;99.90
12773;DHT22;6450;48.576;13.460;2022-08-03T02:18:33;19.10;99.90
12773;DHT22;6450;48.576;13.460;2022-08-03T02:21:06;19.10;99.90
12773;DHT22;6450;48.576;13.460;2022-08-03T02:23:35;19.10;99.90
12773;DHT22;6450;48.576;13.460;2022-08-03T02:26:04;19.10;99.90
12773;DHT22;6450;48.576;13.460;2022-08-03T02:28:34;19.00;99.90
12773;DHT22;6450;48.576;13.460;2022-08-03T02:31:15;19.00;99.90
12773;DHT22;6450;48.576;13.460;2022-08-03T02:33:48;19.00;99.90
12773;DHT22;6450;48.576;13.460;2022-08-03T02:36:19;18.50;99.90
12773;DHT22;6450;48.576;13.460;2022-08-03T02:38:52;19.00;99.90
12773;DHT22;6450;48.576;13.460;2022-08-03T02:41:28;19.00;99.90
12773;DHT22;6450;48.576;13.460;2022-08-03T02:43:56;19.00;99.90
12773;DHT22;6450;48.576;13.460;2022-08-03T02:46:30;18.90;99.90
12773;DHT22;6450;48.576;13.460;2022-08-03T02:49:00;18.90;99.90
12773;DHT22;6450;48.576;13.460;2022-08-03T02:51:31;19.00;99.90
12773;DHT22;6450;48.576;13.460;2022-08-03T02:54:01;19.00;99.90
12773;DHT22;6450;48.576;13.460;2022-08-03T02:56:29;18.60;99.90
12773;DHT22;6450;48.576;13.460;2022-08-03T02:58:57;18.90;99.90
12773;DHT22;6450;48.576;13.460;2022-08-03T03:01:26;18.70;99.90
12773;DHT22;6450;48.576;13.460;2022-08-03T03:03:56;18.70;99.90
12773;DHT22;6450;48.576;13.460;2022-08-03T03:06:24;18.70;99.90
12773;DHT22;6450;48.576;13.460;2022-08-03T03:08:54;18.70;99.90
12773;DHT22;6450;48.576;13.460;2022-08-03T03:11:22;18.70;99.90
12773;DHT22;6450;48.576;13.460;2022-08-03T03:13:51;18.70;99.90
12773;DHT22;6450;48.576;13.460;2022-08-03T03:16:19;18.70;99.90
12773;DHT22;6450;48.576;13.460;2022-08-03T03:18:47;18.60;99.90
12773;DHT22;6450;48.576;13.460;2022-08-03T03:21:17;18.50;99.90
12773;DHT22;6450;48.576;13.460;2022-08-03T03:23:45;18.60;99.90
12773;DHT22;6450;48.576;13.460;2022-08-03T03:26:15;18.50;99.90
12773;DHT22;6450;48.576;13.460;2022-08-03T03:28:42;18.60;99.90
12773;DHT22;6450;48.576;13.460;2022-08-03T03:31:10;18.50;99.90
12773;DHT22;6450;48.576;13.460;2022-08-03T03:33:37;18.40;99.90
12773;DHT22;6450;48.576;13.460;2022-08-03T03:36:05;18.50;99.90
12773;DHT22;6450;48.576;13.460;2022-08-03T03:38:33;18.40;99.90
12773;DHT22;6450;48.576;13.460;2022-08-03T03:41:01;20.40;99.90
12773;DHT22;6450;48.576;13.460;2022-08-03T03:43:29;18.50;99.90
12773;DHT22;6450;48.576;13.460;2022-08-03T03:45:57;18.50;99.90
12773;DHT22;6450;48.576;13.460;2022-08-03T03:48:24;18.30;99.90
12773;DHT22;6450;48.576;13.460;2022-08-03T03:50:52;18.40;99.90
12773;DHT22;6450;48.576;13.460;2022-08-03T03:53:19;18.60;99.90
12773;DHT22;6450;48.576;13.460;2022-08-03T03:55:46;18.40;99.90
12773;DHT22;6450;48.576;13.460;2022-08-03T03:58:13;18.30;99.90
12773;DHT22;6450;48.576;13.460;2022-08-03T04:00:42;18.50;99.90
12773;DHT22;6450;48.576;13.460;2022-08-03T04:03:10;18.70;99.90
12773;DHT22;6450;48.576;13.460;2022-08-03T04:05:37;18.70;99.90
12773;DHT22;6450;48.576;13.460;2022-08-03T04:08:22;18.70;99.90
12773;DHT22;6450;48.576;13.460;2022-08-03T04:11:12;18.70;99.90
12773;DHT22;6450;48.576;13.460;2022-08-03T04:13:43;19.10;99.90
12773;DHT22;6450;48.576;13.460;2022-08-03T04:16:17;19.10;99.90
12773;DHT22;6450;48.576;13.460;2022-08-03T04:18:57;19.20;99.90
12773;DHT22;6450;48.576;13.460;2022-08-03T04:21:27;19.20;99.90
12773;DHT22;6450;48.576;13.460;2022-08-03T04:23:59;19.20;99.90
12773;DHT22;6450;48.576;13.460;2022-08-03T04:26:28;19.30;99.90
12773;DHT22;6450;48.576;13.460;2022-08-03T04:28:56;19.30;99.90
12773;DHT22;6450;48.576;13.460;2022-08-03T04:31:26;19.40;99.90
12773;DHT22;6450;48.576;13.460;2022-08-03T04:33:54;19.40;99.90
12773;DHT22;6450;48.576;13.460;2022-08-03T04:36:24;19.40;99.90
12773;DHT22;6450;48.576;13.460;2022-08-03T04:38:57;19.40;99.90
12773;DHT22;6450;48.576;13.460;2022-08-03T04:41:26;19.40;99.90
12773;DHT22;6450;48.576;13.460;2022-08-03T04:43:55;19.60;99.90
12773;DHT22;6450;48.576;13.460;2022-08-03T04:46:27;19.60;99.90
12773;DHT22;6450;48.576;13.460;2022-08-03T04:48:55;19.70;99.90
12773;DHT22;6450;48.576;13.460;2022-08-03T04:51:23;19.80;99.90
12773;DHT22;6450;48.576;13.460;2022-08-03T04:53:50;19.80;99.90
12773;DHT22;6450;48.576;13.460;2022-08-03T04:56:18;19.90;99.90
12773;DHT22;6450;48.576;13.460;2022-08-03T04:58:45;20.00;99.90
12773;DHT22;6450;48.576;13.460;2022-08-03T05:01:12;20.00;99.90
12773;DHT22;6450;48.576;13.460;2022-08-03T05:03:41;20.10;99.90
12773;DHT22;6450;48.576;13.460;2022-08-03T05:06:08;20.20;99.90
12773;DHT22;6450;48.576;13.460;2022-08-03T05:08:36;20.30;99.90
12773;DHT22;6450;48.576;13.460;2022-08-03T05:11:03;20.50;99.90
12773;DHT22;6450;48.576;13.460;2022-08-03T05:13:30;20.50;99.90
12773;DHT22;6450;48.576;13.460;2022-08-03T05:15:57;20.60;99.90
12773;DHT22;6450;48.576;13.460;2022-08-03T05:18:24;20.80;99.90
12773;DHT22;6450;48.576;13.460;2022-08-03T05:20:52;20.80;99.90
12773;DHT22;6450;48.576;13.460;2022-08-03T05:23:19;20.90;99.90
12773;DHT22;6450;48.576;13.460;2022-08-03T05:25:46;21.00;99.90
12773;DHT22;6450;48.576;13.460;2022-08-03T05:28:13;21.00;99.90
12773;DHT22;6450;48.576;13.460;2022-08-03T05:30:40;21.00;99.90
12773;DHT22;6450;48.576;13.460;2022-08-03T05:33:07;21.10;99.90
12773;DHT22;6450;48.576;13.460;2022-08-03T05:35:34;20.60;99.90
12773;DHT22;6450;48.576;13.460;2022-08-03T05:38:05;21.20;99.90
12773;DHT22;6450;48.576;13.460;2022-08-03T05:40:32;21.20;99.90
12773;DHT22;6450;48.576;13.460;2022-08-03T05:43:00;21.50;99.90
12773;DHT22;6450;48.576;13.460;2022-08-03T05:45:27;21.60;99.90
12773;DHT22;6450;48.576;13.460;2022-08-03T05:47:54;21.70;99.90
12773;DHT22;6450;48.576;13.460;2022-08-03T05:50:21;21.90;99.90
12773;DHT22;6450;48.576;13.460;2022-08-03T05:52:48;22.00;99.90
12773;DHT22;6450;48.576;13.460;2022-08-03T05:55:17;22.00;99.90
12773;DHT22;6450;48.576;13.460;2022-08-03T05:57:45;22.20;99.90
12773;DHT22;6450;48.576;13.460;2022-08-03T06:00:13;22.20;99.90
12773;DHT22;6450;48.576;13.460;2022-08-03T06:02:40;22.40;99.90
12773;DHT22;6450;48.576;13.460;2022-08-03T06:05:08;22.50;99.90
12773;DHT22;6450;48.576;13.460;2022-08-03T06:07:35;22.80;99.90
12773;DHT22;6450;48.576;13.460;2022-08-03T06:10:03;22.70;99.90
12773;DHT22;6450;48.576;13.460;2022-08-03T06:12:32;22.50;99.90
12773;DHT22;6450;48.576;13.460;2022-08-03T06:15:00;22.90;99.90
12773;DHT22;6450;48.576;13.460;2022-08-03T06:17:28;23.10;99.90
12773;DHT22;6450;48.576;13.460;2022-08-03T06:19:55;23.10;99.90
12773;DHT22;6450;48.576;13.460;2022-08-03T06:22:22;23.20;99.90
12773;DHT22;6450;48.576;13.460;2022-08-03T06:24:49;23.10;99.90
12773;DHT22;6450;48.576;13.460;2022-08-03T06:27:16;23.30;99.90
12773;DHT22;6450;48.576;13.460;2022-08-03T06:29:45;23.50;99.90
12773;DHT22;6450;48.576;13.460;2022-08-03T06:32:12;24.20;99.90
12773;DHT22;6450;48.576;13.460;2022-08-03T06:34:39;23.80;99.90
12773;DHT22;6450;48.576;13.460;2022-08-03T06:37:06;23.90;99.90
12773;DHT22;6450;48.576;13.460;2022-08-03T06:39:33;23.90;99.90
12773;DHT22;6450;48.576;13.460;2022-08-03T06:42:00;22.70;99.90
12773;DHT22;6450;48.576;13.460;2022-08-03T06:44:28;24.40;99.90
12773;DHT22;6450;48.576;13.460;2022-08-03T06:46:56;24.40;99.90
12773;DHT22;6450;48.576;13.460;2022-08-03T06:49:24;24.30;99.90
12773;DHT22;6450;48.576;13.460;2022-08-03T06:51:51;24.60;99.90
12773;DHT22;6450;48.576;13.460;2022-08-03T06:54:18;24.70;99.90
12773;DHT22;6450;48.576;13.460;2022-08-03T06:56:46;24.80;99.90
12773;DHT22;6450;48.576;13.460;2022-08-03T06:59:13;25.20;99.90
12773;DHT22;6450;48.576;13.460;2022-08-03T07:01:40;25.10;99.90
12773;DHT22;6450;48.576;13.460;2022-08-03T07:04:09;25.30;99.90
12773;DHT22;6450;48.576;13.460;2022-08-03T07:06:36;25.30;98.00
12773;DHT22;6450;48.576;13.460;2022-08-03T07:09:04;25.40;98.00
12773;DHT22;6450;48.576;13.460;2022-08-03T07:11:31;25.50;97.40
12773;DHT22;6450;48.576;13.460;2022-08-03T07:13:58;25.60;96.40
12773;DHT22;6450;48.576;13.460;2022-08-03T07:16:25;25.70;96.10
12773;DHT22;6450;48.576;13.460;2022-08-03T07:18:52;25.90;99.90
12773;DHT22;6450;48.576;13.460;2022-08-03T07:21:21;25.90;94.70
12773;DHT22;6450;48.576;13.460;2022-08-03T07:23:48;26.00;93.90
12773;DHT22;6450;48.576;13.460;2022-08-03T07:26:15;26.00;93.60
12773;DHT22;6450;48.576;13.460;2022-08-03T07:28:42;26.20;93.20
12773;DHT22;6450;48.576;13.460;2022-08-03T07:31:11;26.30;92.70
12773;DHT22;6450;48.576;13.460;2022-08-03T07:33:38;26.40;92.20
12773;DHT22;6450;48.576;13.460;2022-08-03T07:36:05;26.40;91.80
12773;DHT22;6450;48.576;13.460;2022-08-03T07:41:02;26.70;90.70
12773;DHT22;6450;48.576;13.460;2022-08-03T07:43:29;26.80;90.80
12773;DHT22;6450;48.576;13.460;2022-08-03T07:45:56;26.80;90.20
12773;DHT22;6450;48.576;13.460;2022-08-03T07:48:23;27.00;99.90
12773;DHT22;6450;48.576;13.460;2022-08-03T07:50:50;27.10;89.10
12773;DHT22;6450;48.576;13.460;2022-08-03T07:53:18;27.10;89.40
12773;DHT22;6450;48.576;13.460;2022-08-03T07:55:46;27.20;88.80
12773;DHT22;6450;48.576;13.460;2022-08-03T07:58:13;27.30;87.50
12773;DHT22;6450;48.576;13.460;2022-08-03T08:00:43;27.30;87.00
12773;DHT22;6450;48.576;13.460;2022-08-03T08:03:10;27.40;85.50
12773;DHT22;6450;48.576;13.460;2022-08-03T08:05:38;27.50;86.70
12773;DHT22;6450;48.576;13.460;2022-08-03T08:08:05;27.50;85.80
12773;DHT22;6450;48.576;13.460;2022-08-03T08:10:33;28.10;85.10
12773;DHT22;6450;48.576;13.460;2022-08-03T08:13:02;27.70;84.90
12773;DHT22;6450;48.576;13.460;2022-08-03T08:15:29;27.70;84.50
12773;DHT22;6450;48.576;13.460;2022-08-03T08:17:58;27.80;83.80
12773;DHT22;6450;48.576;13.460;2022-08-03T08:20:27;27.90;82.10
12773;DHT22;6450;48.576;13.460;2022-08-03T08:22:55;28.10;81.90
12773;DHT22;6450;48.576;13.460;2022-08-03T08:25:23;28.20;81.40
12773;DHT22;6450;48.576;13.460;2022-08-03T08:27:50;28.30;81.00
12773;DHT22;6450;48.576;13.460;2022-08-03T08:30:21;28.40;80.00
12773;DHT22;6450;48.576;13.460;2022-08-03T08:32:48;28.40;79.20
12773;DHT22;6450;48.576;13.460;2022-08-03T08:35:16;28.30;78.80
12773;DHT22;6450;48.576;13.460;2022-08-03T08:37:43;28.30;79.20
12773;DHT22;6450;48.576;13.460;2022-08-03T08:40:11;28.20;78.50
12773;DHT22;6450;48.576;13.460;2022-08-03T08:42:39;28.20;79.30
12773;DHT22;6450;48.576;13.460;2022-08-03T08:45:07;28.30;79.50
12773;DHT22;6450;48.576;13.460;2022-08-03T08:47:38;28.40;78.50
12773;DHT22;6450;48.576;13.460;2022-08-03T08:50:07;28.50;77.80
12773;DHT22;6450;48.576;13.460;2022-08-03T08:52:37;28.80;92.00
12773;DHT22;6450;48.576;13.460;2022-08-03T08:55:07;28.60;77.60
12773;DHT22;6450;48.576;13.460;2022-08-03T08:57:36;28.70;77.50
12773;DHT22;6450;48.576;13.460;2022-08-03T09:00:06;28.80;76.50
12773;DHT22;6450;48.576;13.460;2022-08-03T09:02:37;28.90;76.10
12773;DHT22;6450;48.576;13.460;2022-08-03T09:05:04;29.00;76.50
12773;DHT22;6450;48.576;13.460;2022-08-03T09:07:32;29.10;75.60
12773;DHT22;6450;48.576;13.460;2022-08-03T09:12:26;29.20;73.60
12773;DHT22;6450;48.576;13.460;2022-08-03T09:14:54;29.20;74.30
12773;DHT22;6450;48.576;13.460;2022-08-03T09:17:21;29.20;74.20
12773;DHT22;6450;48.576;13.460;2022-08-03T09:20:05;29.30;72.40
12773;DHT22;6450;48.576;13.460;2022-08-03T09:22:33;29.40;73.60
12773;DHT22;6450;48.576;13.460;2022-08-03T09:25:03;29.50;72.80
12773;DHT22;6450;48.576;13.460;2022-08-03T09:27:41;29.50;71.40
12773;DHT22;6450;48.576;13.460;2022-08-03T09:30:13;29.50;72.10
12773;DHT22;6450;48.576;13.460;2022-08-03T09:32:41;29.60;71.30
12773;DHT22;6450;48.576;13.460;2022-08-03T09:35:11;29.70;71.10
12773;DHT22;6450;48.576;13.460;2022-08-03T09:37:39;29.80;70.70
12773;DHT22;6450;48.576;13.460;2022-08-03T09:40:07;29.80;70.10
12773;DHT22;6450;48.576;13.460;2022-08-03T09:42:34;31.20;71.20
12773;DHT22;6450;48.576;13.460;2022-08-03T09:45:03;30.70;85.00
12773;DHT22;6450;48.576;13.460;2022-08-03T09:47:32;28.70;68.40
12773;DHT22;6450;48.576;13.460;2022-08-03T09:50:03;30.10;67.30
12773;DHT22;6450;48.576;13.460;2022-08-03T09:52:33;30.20;65.10
12773;DHT22;6450;48.576;13.460;2022-08-03T09:55:02;30.20;81.90
12773;DHT22;6450;48.576;13.460;2022-08-03T09:57:33;30.50;66.00
12773;DHT22;6450;48.576;13.460;2022-08-03T10:00:09;30.40;66.80
12773;DHT22;6450;48.576;13.460;2022-08-03T10:02:38;30.50;66.20
12773;DHT22;6450;48.576;13.460;2022-08-03T10:05:06;30.50;64.80
12773;DHT22;6450;48.576;13.460;2022-08-03T10:07:43;30.50;64.80
12773;DHT22;6450;48.576;13.460;2022-08-03T10:10:11;30.60;64.20
12773;DHT22;6450;48.576;13.460;2022-08-03T10:12:39;30.60;64.60
12773;DHT22;6450;48.576;13.460;2022-08-03T10:15:07;30.60;64.20
12773;DHT22;6450;48.576;13.460;2022-08-03T10:17:35;30.70;62.50
12773;DHT22;6450;48.576;13.460;2022-08-03T10:20:03;30.60;62.80
12773;DHT22;6450;48.576;13.460;2022-08-03T10:22:32;30.50;63.40
12773;DHT22;6450;48.576;13.460;2022-08-03T10:25:03;30.40;63.40
12773;DHT22;6450;48.576;13.460;2022-08-03T10:27:33;31.50;64.00
12773;DHT22;6450;48.576;13.460;2022-08-03T10:30:04;30.60;63.60
12773;DHT22;6450;48.576;13.460;2022-08-03T10:32:37;30.60;63.90
12773;DHT22;6450;48.576;13.460;2022-08-03T10:35:06;30.70;63.50
12773;DHT22;6450;48.576;13.460;2022-08-03T10:37:40;30.80;62.10
12773;DHT22;6450;48.576;13.460;2022-08-03T10:40:12;30.80;62.60
12773;DHT22;6450;48.576;13.460;2022-08-03T10:42:41;30.80;61.90
12773;DHT22;6450;48.576;13.460;2022-08-03T10:45:14;30.80;62.10
12773;DHT22;6450;48.576;13.460;2022-08-03T10:47:44;31.00;61.30
12773;DHT22;6450;48.576;13.460;2022-08-03T10:50:14;31.00;61.80
12773;DHT22;6450;48.576;13.460;2022-08-03T10:52:54;31.10;61.70
12773;DHT22;6450;48.576;13.460;2022-08-03T10:55:34;31.40;59.50
12773;DHT22;6450;48.576;13.460;2022-08-03T10:58:46;31.40;60.10
12773;DHT22;6450;48.576;13.460;2022-08-03T11:01:15;31.50;61.30
12773;DHT22;6450;48.576;13.460;2022-08-03T11:04:16;31.50;61.50
12773;DHT22;6450;48.576;13.460;2022-08-03T11:06:44;31.20;61.20
12773;DHT22;6450;48.576;13.460;2022-08-03T11:09:17;31.20;61.00
12773;DHT22;6450;48.576;13.460;2022-08-03T11:11:46;31.40;61.10
12773;DHT22;6450;48.576;13.460;2022-08-03T11:14:16;31.50;60.00
12773;DHT22;6450;48.576;13.460;2022-08-03T11:16:44;31.40;60.60
12773;DHT22;6450;48.576;13.460;2022-08-03T11:19:13;31.60;59.90
12773;DHT22;6450;48.576;13.460;2022-08-03T11:22:05;31.70;60.10
12773;DHT22;6450;48.576;13.460;2022-08-03T11:24:59;31.70;60.30
12773;DHT22;6450;48.576;13.460;2022-08-03T11:27:30;31.90;59.80
12773;DHT22;6450;48.576;13.460;2022-08-03T11:30:00;32.00;59.70
12773;DHT22;6450;48.576;13.460;2022-08-03T11:32:50;32.00;59.40
12773;DHT22;6450;48.576;13.460;2022-08-03T11:35:18;31.90;59.40
12773;DHT22;6450;48.576;13.460;2022-08-03T11:38:09;31.80;59.50
12773;DHT22;6450;48.576;13.460;2022-08-03T11:40:38;31.80;59.30
12773;DHT22;6450;48.576;13.460;2022-08-03T11:43:08;31.80;59.70
12773;DHT22;6450;48.576;13.460;2022-08-03T11:45:36;31.70;59.10
12773;DHT22;6450;48.576;13.460;2022-08-03T11:48:13;31.70;59.00
12773;DHT22;6450;48.576;13.460;2022-08-03T11:50:41;32.00;57.80
12773;DHT22;6450;48.576;13.460;2022-08-03T11:53:14;32.00;58.20
12773;DHT22;6450;48.576;13.460;2022-08-03T11:55:42;32.20;57.30
12773;DHT22;6450;48.576;13.460;2022-08-03T11:58:19;32.50;72.90
12773;DHT22;6450;48.576;13.460;2022-08-03T12:00:47;32.40;57.80
12773;DHT22;6450;48.576;13.460;2022-08-03T12:03:16;32.60;57.60
12773;DHT22;6450;48.576;13.460;2022-08-03T12:05:48;32.70;56.60
12773;DHT22;6450;48.576;13.460;2022-08-03T12:08:18;32.70;56.50
12773;DHT22;6450;48.576;13.460;2022-08-03T12:10:56;32.70;57.00
12773;DHT22;6450;48.576;13.460;2022-08-03T12:13:24;32.90;57.20
12773;DHT22;6450;48.576;13.460;2022-08-03T12:15:54;32.90;55.40
12773;DHT22;6450;48.576;13.460;2022-08-03T12:18:21;32.70;55.50
12773;DHT22;6450;48.576;13.460;2022-08-03T12:20:50;32.80;54.90
12773;DHT22;6450;48.576;13.460;2022-08-03T12:23:19;31.90;55.10
12773;DHT22;6450;48.576;13.460;2022-08-03T12:25:46;32.40;55.80
12773;DHT22;6450;48.576;13.460;2022-08-03T12:28:18;32.30;55.20
12773;DHT22;6450;48.576;13.460;2022-08-03T12:30:50;32.40;55.20
12773;DHT22;6450;48.576;13.460;2022-08-03T12:33:25;32.40;55.80
12773;DHT22;6450;48.576;13.460;2022-08-03T12:36:04;32.50;55.10
12773;DHT22;6450;48.576;13.460;2022-08-03T12:38:33;32.50;54.80
12773;DHT22;6450;48.576;13.460;2022-08-03T12:41:03;33.30;54.90
12773;DHT22;6450;48.576;13.460;2022-08-03T12:43:30;32.50;55.30
12773;DHT22;6450;48.576;13.460;2022-08-03T12:46:15;32.50;54.90
12773;DHT22;6450;48.576;13.460;2022-08-03T12:48:59;32.40;54.70
12773;DHT22;6450;48.576;13.460;2022-08-03T12:51:26;32.50;55.50
12773;DHT22;6450;48.576;13.460;2022-08-03T12:53:54;32.50;55.30
12773;DHT22;6450;48.576;13.460;2022-08-03T12:56:22;32.50;54.80
12773;DHT22;6450;48.576;13.460;2022-08-03T12:58:50;33.30;55.90
12773;DHT22;6450;48.576;13.460;2022-08-03T13:01:19;32.70;55.30
12773;DHT22;6450;48.576;13.460;2022-08-03T13:03:50;32.70;69.50
12773;DHT22;6450;48.576;13.460;2022-08-03T13:06:18;32.80;54.60
12773;DHT22;6450;48.576;13.460;2022-08-03T13:08:46;32.80;54.80
12773;DHT22;6450;48.576;13.460;2022-08-03T13:11:21;32.80;53.00
12773;DHT22;6450;48.576;13.460;2022-08-03T13:13:48;32.70;53.10
12773;DHT22;6450;48.576;13.460;2022-08-03T13:16:15;32.80;54.10
12773;DHT22;6450;48.576;13.460;2022-08-03T13:18:44;32.80;68.30
12773;DHT22;6450;48.576;13.460;2022-08-03T13:21:12;32.90;53.60
12773;DHT22;6450;48.576;13.460;2022-08-03T13:23:40;32.80;53.10
12773;DHT22;6450;48.576;13.460;2022-08-03T13:26:07;32.80;53.60
12773;DHT22;6450;48.576;13.460;2022-08-03T13:28:34;32.80;53.50
12773;DHT22;6450;48.576;13.460;2022-08-03T13:31:01;32.80;53.40
12773;DHT22;6450;48.576;13.460;2022-08-03T13:33:28;32.80;53.50
12773;DHT22;6450;48.576;13.460;2022-08-03T13:35:56;32.90;52.50
12773;DHT22;6450;48.576;13.460;2022-08-03T13:38:24;32.90;53.50
12773;DHT22;6450;48.576;13.460;2022-08-03T13:40:51;32.80;53.70
12773;DHT22;6450;48.576;13.460;2022-08-03T13:43:19;32.80;54.10
12773;DHT22;6450;48.576;13.460;2022-08-03T13:45:46;32.80;53.00
12773;DHT22;6450;48.576;13.460;2022-08-03T13:48:13;32.80;52.10
12773;DHT22;6450;48.576;13.460;2022-08-03T13:50:40;32.80;51.90
12773;DHT22;6450;48.576;13.460;2022-08-03T13:53:09;32.80;52.50
12773;DHT22;6450;48.576;13.460;2022-08-03T13:55:36;32.90;52.10
12773;DHT22;6450;48.576;13.460;2022-08-03T13:58:03;32.90;52.00
12773;DHT22;6450;48.576;13.460;2022-08-03T14:00:32;33.00;65.10
12773;DHT22;6450;48.576;13.460;2022-08-03T14:03:00;32.90;51.60
12773;DHT22;6450;48.576;13.460;2022-08-03T14:05:28;32.90;51.50
12773;DHT22;6450;48.576;13.460;2022-08-03T14:07:55;32.80;51.30
12773;DHT22;6450;48.576;13.460;2022-08-03T14:10:23;32.70;51.00
12773;DHT22;6450;48.576;13.460;2022-08-03T14:12:50;32.80;51.00
12773;DHT22;6450;48.576;13.460;2022-08-03T14:15:17;32.80;51.00
12773;DHT22;6450;48.576;13.460;2022-08-03T14:17:44;32.80;50.30
12773;DHT22;6450;48.576;13.460;2022-08-03T14:20:11;32.70;50.50
12773;DHT22;6450;48.576;13.460;2022-08-03T14:22:39;32.50;64.20
12773;DHT22;6450;48.576;13.460;2022-08-03T14:25:06;32.70;51.40
12773;DHT22;6450;48.576;13.460;2022-08-03T14:27:35;32.80;50.70
12773;DHT22;6450;48.576;13.460;2022-08-03T14:30:03;32.80;51.80
12773;DHT22;6450;48.576;13.460;2022-08-03T14:32:30;32.70;50.60
12773;DHT22;6450;48.576;13.460;2022-08-03T14:34:57;32.70;50.80
12773;DHT22;6450;48.576;13.460;2022-08-03T14:37:24;32.70;50.70
12773;DHT22;6450;48.576;13.460;2022-08-03T14:39:51;32.80;50.60
12773;DHT22;6450;48.576;13.460;2022-08-03T14:42:18;32.90;50.90
12773;DHT22;6450;48.576;13.460;2022-08-03T14:44:46;32.90;50.50
12773;DHT22;6450;48.576;13.460;2022-08-03T14:47:13;33.00;49.60
12773;DHT22;6450;48.576;13.460;2022-08-03T14:49:40;32.80;63.20
12773;DHT22;6450;48.576;13.460;2022-08-03T14:52:08;32.90;49.60
12773;DHT22;6450;48.576;13.460;2022-08-03T14:54:35;32.80;49.30
12773;DHT22;6450;48.576;13.460;2022-08-03T14:57:02;32.80;50.00
12773;DHT22;6450;48.576;13.460;2022-08-03T14:59:29;33.00;49.40
12773;DHT22;6450;48.576;13.460;2022-08-03T15:01:58;33.00;49.90
12773;DHT22;6450;48.576;13.460;2022-08-03T15:04:25;33.00;49.60
12773;DHT22;6450;48.576;13.460;2022-08-03T15:06:52;33.00;49.50
12773;DHT22;6450;48.576;13.460;2022-08-03T15:09:19;33.10;48.80
12773;DHT22;6450;48.576;13.460;2022-08-03T15:11:46;33.10;49.60
12773;DHT22;6450;48.576;13.460;2022-08-03T15:14:13;33.20;49.80
12773;DHT22;6450;48.576;13.460;2022-08-03T15:16:40;31.70;48.20
12773;DHT22;6450;48.576;13.460;2022-08-03T15:19:09;33.50;49.60
12773;DHT22;6450;48.576;13.460;2022-08-03T15:21:36;33.50;49.20
12773;DHT22;6450;48.576;13.460;2022-08-03T15:24:03;33.60;50.10
12773;DHT22;6450;48.576;13.460;2022-08-03T15:26:30;33.80;48.40
12773;DHT22;6450;48.576;13.460;2022-08-03T15:28:57;34.10;48.40
12773;DHT22;6450;48.576;13.460;2022-08-03T15:31:24;34.40;47.90
12773;DHT22;6450;48.576;13.460;2022-08-03T15:33:51;34.80;47.20
12773;DHT22;6450;48.576;13.460;2022-08-03T15:36:20;35.30;45.90
12773;DHT22;6450;48.576;13.460;2022-08-03T15:38:47;35.50;46.50
12773;DHT22;6450;48.576;13.460;2022-08-03T15:41:14;36.00;45.80
12773;DHT22;6450;48.576;13.460;2022-08-03T15:43:41;36.60;44.50
12773;DHT22;6450;48.576;13.460;2022-08-03T15:46:11;37.40;45.10
12773;DHT22;6450;48.576;13.460;2022-08-03T15:48:38;38.20;44.30
12773;DHT22;6450;48.576;13.460;2022-08-03T15:51:06;38.90;41.70
12773;DHT22;6450;48.576;13.460;2022-08-03T15:53:35;38.90;42.10